^^
Station Historical Data
Daily Summary for April 24, 2017 Units:  English    Metric   Both
« Previous Day
Next Day »
Daily Weekly Monthly Yearly Custom
  High: Low: Average:
Temperature: 62.6 °F 41.0 °F 52.3 °F
Dew Point: 47.9 °F 39.4 °F 43 °F
Humidity: 96% 46% 73%
Wind Speed: 3.0mph 0.0mph 0.3mph
Wind Gust: 8.0mph - -
Wind- - South
Pressure: 30.19 in 30.13 in -
Precipitation: 0.00 in    
Historical Graphs
 
 
Tabular Data for April 24, 2017
Time Temperature Dew Point Pressure Wind Wind Speed Wind Gust Humidity Rainfall Rate (Hourly) Conditions
00:00 46.6 °F 42.0 °F 30.15 in Calm     84% 0.00 in CLR
00:15 46.2 °F 42.0 °F 30.15 in Calm     85% 0.00 in CLR
00:30 46.4 °F 42.4 °F 30.15 in Calm   2.0 mph 86% 0.00 in CLR
00:45 46.1 °F 42.1 °F 30.15 in Calm   1.0 mph 86% 0.00 in CLR
01:00 45.5 °F 41.9 °F 30.15 in Calm   1.0 mph 87% 0.00 in CLR
02:15 44.7 °F 40.8 °F 30.13 in Calm     86% 0.00 in CLR
02:30 45.0 °F 41.4 °F 30.13 in Calm     87% 0.00 in CLR
02:45 44.7 °F 41.4 °F 30.13 in Calm   1.0 mph 88% 0.00 in CLR
03:00 44.5 °F 41.8 °F 30.13 in Calm   1.0 mph 90% 0.00 in CLR
03:15 43.6 °F 40.9 °F 30.13 in Calm     90% 0.00 in CLR
03:30 43.6 °F 40.8 °F 30.13 in Calm     90% 0.00 in CLR
03:45 43.3 °F 40.8 °F 30.13 in Calm     91% 0.00 in CLR
04:00 43.7 °F 41.2 °F 30.13 in Calm   2.0 mph 91% 0.00 in CLR
04:15 43.5 °F 41.3 °F 30.14 in Calm     92% 0.00 in CLR
04:30 43.2 °F 41.4 °F 30.13 in Calm     93% 0.00 in CLR
04:45 43.1 °F 41.2 °F 30.13 in Calm     93% 0.00 in CLR
05:00 41.9 °F 39.7 °F 30.13 in Calm     92% 0.00 in CLR
05:15 42.6 °F 41.0 °F 30.14 in Calm   1.0 mph 94% 0.00 in CLR
05:30 41.5 °F 39.6 °F 30.14 in Calm     93% 0.00 in CLR
05:45 41.0 °F 39.4 °F 30.15 in Calm     94% 0.00 in CLR
06:00 42.2 °F 41.1 °F 30.15 in Calm     96% 0.00 in CLR
06:15 42.4 °F 41.1 °F 30.15 in Calm   2.0 mph 95% 0.00 in CLR
06:30 43.1 °F 41.8 °F 30.15 in Calm   1.0 mph 95% 0.00 in CLR
06:45 42.5 °F 40.9 °F 30.16 in Calm   1.0 mph 94% 0.00 in CLR
07:00 42.0 °F 40.4 °F 30.16 in Calm   1.0 mph 94% 0.00 in CLR
07:15 43.5 °F 42.4 °F 30.17 in Calm     96% 0.00 in BKN
07:30 44.2 °F 42.9 °F 30.17 in Calm   2.0 mph 95% 0.00 in BKN
07:45 45.6 °F 44.3 °F 30.18 in Calm     95% 0.00 in BKN
08:00 47.2 °F 45.6 °F 30.18 in Calm   1.0 mph 94% 0.00 in BKN
08:30 49.1 °F 46.0 °F 30.18 in Calm   2.0 mph 89% 0.00 in BKN
08:45 49.7 °F 46.3 °F 30.18 in Calm   3.0 mph 88% 0.00 in BKN
09:00 50.2 °F 46.2 °F 30.19 in Calm   3.0 mph 86% 0.00 in BKN
09:15 50.8 °F 46.1 °F 30.19 in Calm   3.0 mph 84% 0.00 in CLR
09:30 51.9 °F 46.6 °F 30.19 in Calm   2.0 mph 82% 0.00 in CLR
09:45 52.6 °F 45.6 °F 30.19 in Calm   4.0 mph 77% 0.00 in CLR
10:00 53.2 °F 46.5 °F 30.19 in Calm   2.0 mph 78% 0.00 in CLR
10:15 53.3 °F 47.6 °F 30.19 in Calm   3.0 mph 81% 0.00 in OVC
10:30 54.3 °F 47.9 °F 30.19 in Calm   2.0 mph 79% 0.00 in OVC
10:45 55.7 °F 47.2 °F 30.19 in Calm   2.0 mph 73% 0.00 in OVC
11:00 55.4 °F 47.6 °F 30.19 in WNW 1.0 mph 3.0 mph 75% 0.00 in OVC
11:15 55.7 °F 47.9 °F 30.19 in Calm   3.0 mph 75% 0.00 in BKN
11:30 58.1 °F 46.8 °F 30.18 in SSW 1.0 mph 8.0 mph 66% 0.00 in BKN
11:45 59.1 °F 44.8 °F 30.18 in SSW 3.0 mph 8.0 mph 59% 0.00 in BKN
12:00 59.5 °F 45.2 °F 30.18 in Calm   5.0 mph 59% 0.00 in BKN
12:15 59.4 °F 44.2 °F 30.18 in Calm   6.0 mph 57% 0.00 in BKN
12:30 59.7 °F 43.0 °F 30.18 in NNE 1.0 mph 6.0 mph 54% 0.00 in BKN
12:45 59.2 °F 41.1 °F 30.18 in SE 2.0 mph 8.0 mph 51% 0.00 in BKN
13:00 59.3 °F 41.2 °F 30.18 in Calm   5.0 mph 51% 0.00 in BKN
13:15 59.6 °F 40.4 °F 30.17 in NW 1.0 mph 6.0 mph 49% 0.00 in BKN
13:30 60.5 °F 40.7 °F 30.17 in West 1.0 mph 7.0 mph 48% 0.00 in BKN
13:45 61.4 °F 41.5 °F 30.17 in SE 1.0 mph 5.0 mph 48% 0.00 in BKN
14:00 61.6 °F 42.3 °F 30.17 in WSW 1.0 mph 4.0 mph 49% 0.00 in BKN
14:15 61.7 °F 42.4 °F 30.16 in West 1.0 mph 5.0 mph 49% 0.00 in BKN
14:30 61.9 °F 42.5 °F 30.16 in NNW 1.0 mph 3.0 mph 49% 0.00 in BKN
14:45 61.5 °F 42.1 °F 30.16 in Calm   6.0 mph 49% 0.00 in BKN
15:00 61.8 °F 42.4 °F 30.16 in SW 1.0 mph 3.0 mph 49% 0.00 in BKN
15:15 61.6 °F 42.3 °F 30.16 in Calm   3.0 mph 49% 0.00 in OVC
15:30 62.0 °F 42.1 °F 30.16 in SE 1.0 mph 4.0 mph 48% 0.00 in OVC
15:45 62.5 °F 42.0 °F 30.16 in ENE 1.0 mph 4.0 mph 47% 0.00 in OVC
16:00 62.4 °F 41.3 °F 30.15 in Calm   4.0 mph 46% 0.00 in OVC
16:15 62.6 °F 42.6 °F 30.15 in Calm   4.0 mph 48% 0.00 in BKN
16:30 61.9 °F 41.4 °F 30.16 in Calm   3.0 mph 47% 0.00 in BKN
16:45 61.0 °F 40.1 °F 30.16 in SSE 1.0 mph 5.0 mph 46% 0.00 in BKN
17:00 60.7 °F 39.8 °F 30.15 in Calm   3.0 mph 46% 0.00 in BKN
17:15 60.2 °F 40.4 °F 30.14 in Calm   3.0 mph 48% 0.00 in BKN
17:30 59.9 °F 41.2 °F 30.14 in Calm   4.0 mph 50% 0.00 in BKN
17:45 59.2 °F 41.1 °F 30.15 in Calm   2.0 mph 51% 0.00 in BKN
18:00 58.6 °F 42.4 °F 30.15 in SSE 1.0 mph 3.0 mph 55% 0.00 in BKN
18:15 57.1 °F 43.3 °F 30.15 in Calm   4.0 mph 60% 0.00 in -RA
18:30 56.0 °F 44.4 °F 30.16 in Calm   5.0 mph 65% 0.00 in -RA
18:45 54.8 °F 44.4 °F 30.16 in Calm   2.0 mph 68% 0.00 in -RA
19:00 53.9 °F 44.7 °F 30.16 in Calm   2.0 mph 71% 0.00 in -RA
19:15 53.6 °F 45.2 °F 30.15 in Calm   4.0 mph 73% 0.00 in -RA
19:30 53.5 °F 44.7 °F 30.15 in Calm   2.0 mph 72% 0.00 in -RA
19:45 53.4 °F 44.6 °F 30.15 in Calm   1.0 mph 72% 0.00 in -RA
20:00 53.3 °F 44.1 °F 30.15 in Calm   3.0 mph 71% 0.00 in -RA
20:15 53.1 °F 44.3 °F 30.15 in Calm   5.0 mph 72% 0.00 in BKN
20:30 52.8 °F 44.3 °F 30.15 in NE 1.0 mph 4.0 mph 73% 0.00 in BKN
20:45 52.5 °F 44.4 °F 30.15 in Calm   2.0 mph 74% 0.00 in BKN
21:00 52.4 °F 44.7 °F 30.15 in Calm   4.0 mph 75% 0.00 in BKN
21:15 52.3 °F 45.0 °F 30.16 in Calm   1.0 mph 76% 0.00 in BKN
21:30 52.1 °F 44.8 °F 30.15 in Calm   2.0 mph 76% 0.00 in BKN
21:45 52.1 °F 45.1 °F 30.16 in Calm   2.0 mph 77% 0.00 in BKN
22:00 52.0 °F 45.0 °F 30.16 in Calm   3.0 mph 77% 0.00 in BKN
22:15 51.8 °F 44.5 °F 30.15 in NE 1.0 mph 2.0 mph 76% 0.00 in BKN
22:30 51.7 °F 44.0 °F 30.16 in Calm   3.0 mph 75% 0.00 in BKN
22:45 51.6 °F 43.2 °F 30.16 in Calm   5.0 mph 73% 0.00 in BKN
23:00 51.4 °F 42.7 °F 30.16 in Calm   6.0 mph 72% 0.00 in BKN
23:15 51.2 °F 41.7 °F 30.15 in Calm   4.0 mph 70% 0.00 in BKN
23:30 50.9 °F 41.8 °F 30.15 in NE 1.0 mph 3.0 mph 71% 0.00 in BKN
23:45 50.7 °F 42.0 °F 30.16 in North 1.0 mph 4.0 mph 72% 0.00 in BKN
TarryTown NY Weather
Compliments of Weather Underground - 1.5 mb